sensor_id;sensor_type;location;lat;lon;timestamp;P1;durP1;ratioP1;P2;durP2;ratioP2
47960;SDS011;33721;48.852;9.936;2023-04-19T00:01:23;31.38;;;14.95;;
47960;SDS011;33721;48.852;9.936;2023-04-19T00:03:49;36.65;;;15.70;;
47960;SDS011;33721;48.852;9.936;2023-04-19T00:06:15;31.45;;;14.65;;
47960;SDS011;33721;48.852;9.936;2023-04-19T00:08:41;31.15;;;14.52;;
47960;SDS011;33721;48.852;9.936;2023-04-19T00:11:07;33.13;;;14.65;;
47960;SDS011;33721;48.852;9.936;2023-04-19T00:13:34;32.65;;;14.35;;
47960;SDS011;33721;48.852;9.936;2023-04-19T00:15:59;34.08;;;14.70;;
47960;SDS011;33721;48.852;9.936;2023-04-19T00:18:25;31.38;;;14.80;;
47960;SDS011;33721;48.852;9.936;2023-04-19T00:20:51;29.85;;;14.52;;
47960;SDS011;33721;48.852;9.936;2023-04-19T00:23:16;31.20;;;14.98;;
47960;SDS011;33721;48.852;9.936;2023-04-19T00:25:44;34.35;;;15.57;;
47960;SDS011;33721;48.852;9.936;2023-04-19T00:28:10;39.88;;;15.05;;
47960;SDS011;33721;48.852;9.936;2023-04-19T00:30:35;34.13;;;15.32;;
47960;SDS011;33721;48.852;9.936;2023-04-19T00:33:01;34.15;;;16.10;;
47960;SDS011;33721;48.852;9.936;2023-04-19T00:35:27;32.78;;;14.70;;
47960;SDS011;33721;48.852;9.936;2023-04-19T00:37:52;34.28;;;14.95;;
47960;SDS011;33721;48.852;9.936;2023-04-19T00:40:18;32.05;;;14.75;;
47960;SDS011;33721;48.852;9.936;2023-04-19T00:42:44;35.08;;;15.07;;
47960;SDS011;33721;48.852;9.936;2023-04-19T00:45:10;31.77;;;15.77;;
47960;SDS011;33721;48.852;9.936;2023-04-19T00:47:36;32.95;;;15.25;;
47960;SDS011;33721;48.852;9.936;2023-04-19T00:50:02;34.00;;;15.27;;
47960;SDS011;33721;48.852;9.936;2023-04-19T00:52:28;31.65;;;13.80;;
47960;SDS011;33721;48.852;9.936;2023-04-19T00:54:54;33.65;;;14.95;;
47960;SDS011;33721;48.852;9.936;2023-04-19T00:57:22;30.25;;;14.70;;
47960;SDS011;33721;48.852;9.936;2023-04-19T00:59:48;34.83;;;15.07;;
47960;SDS011;33721;48.852;9.936;2023-04-19T01:02:15;30.50;;;14.82;;
47960;SDS011;33721;48.852;9.936;2023-04-19T01:04:41;32.08;;;14.50;;
47960;SDS011;33721;48.852;9.936;2023-04-19T01:07:07;35.58;;;15.48;;
47960;SDS011;33721;48.852;9.936;2023-04-19T01:09:33;36.00;;;15.35;;
47960;SDS011;33721;48.852;9.936;2023-04-19T01:11:59;35.60;;;14.68;;
47960;SDS011;33721;48.852;9.936;2023-04-19T01:14:26;32.85;;;15.27;;
47960;SDS011;33721;48.852;9.936;2023-04-19T01:16:51;30.63;;;14.65;;
47960;SDS011;33721;48.852;9.936;2023-04-19T01:19:18;32.90;;;15.25;;
47960;SDS011;33721;48.852;9.936;2023-04-19T01:21:43;32.42;;;14.88;;
47960;SDS011;33721;48.852;9.936;2023-04-19T01:24:10;35.40;;;15.52;;
47960;SDS011;33721;48.852;9.936;2023-04-19T01:26:36;32.10;;;15.32;;
47960;SDS011;33721;48.852;9.936;2023-04-19T01:29:01;33.22;;;15.63;;
47960;SDS011;33721;48.852;9.936;2023-04-19T01:31:27;32.47;;;15.25;;
47960;SDS011;33721;48.852;9.936;2023-04-19T01:33:53;34.95;;;15.55;;
47960;SDS011;33721;48.852;9.936;2023-04-19T01:36:19;30.58;;;14.23;;
47960;SDS011;33721;48.852;9.936;2023-04-19T01:38:44;33.50;;;15.70;;
47960;SDS011;33721;48.852;9.936;2023-04-19T01:41:11;34.70;;;15.13;;
47960;SDS011;33721;48.852;9.936;2023-04-19T01:43:37;32.30;;;15.48;;
47960;SDS011;33721;48.852;9.936;2023-04-19T01:46:03;35.40;;;15.35;;
47960;SDS011;33721;48.852;9.936;2023-04-19T01:48:29;33.72;;;15.68;;
47960;SDS011;33721;48.852;9.936;2023-04-19T01:50:54;30.55;;;14.93;;
47960;SDS011;33721;48.852;9.936;2023-04-19T01:53:20;32.67;;;15.82;;
47960;SDS011;33721;48.852;9.936;2023-04-19T01:55:46;32.30;;;15.90;;
47960;SDS011;33721;48.852;9.936;2023-04-19T01:58:11;37.78;;;16.83;;
47960;SDS011;33721;48.852;9.936;2023-04-19T02:00:37;32.33;;;15.15;;
47960;SDS011;33721;48.852;9.936;2023-04-19T02:03:02;34.40;;;15.63;;
47960;SDS011;33721;48.852;9.936;2023-04-19T02:05:28;35.20;;;15.50;;
47960;SDS011;33721;48.852;9.936;2023-04-19T02:07:54;37.72;;;16.30;;
47960;SDS011;33721;48.852;9.936;2023-04-19T02:10:20;35.95;;;16.95;;
47960;SDS011;33721;48.852;9.936;2023-04-19T02:12:46;32.50;;;15.18;;
47960;SDS011;33721;48.852;9.936;2023-04-19T02:15:12;33.03;;;16.48;;
47960;SDS011;33721;48.852;9.936;2023-04-19T02:17:38;33.53;;;15.32;;
47960;SDS011;33721;48.852;9.936;2023-04-19T02:20:04;33.15;;;15.70;;
47960;SDS011;33721;48.852;9.936;2023-04-19T02:22:32;36.35;;;15.40;;
47960;SDS011;33721;48.852;9.936;2023-04-19T02:24:57;32.85;;;14.77;;
47960;SDS011;33721;48.852;9.936;2023-04-19T02:27:23;34.42;;;15.40;;
47960;SDS011;33721;48.852;9.936;2023-04-19T02:29:49;38.00;;;16.27;;
47960;SDS011;33721;48.852;9.936;2023-04-19T02:32:15;35.65;;;16.35;;
47960;SDS011;33721;48.852;9.936;2023-04-19T02:34:41;30.88;;;14.82;;
47960;SDS011;33721;48.852;9.936;2023-04-19T02:37:06;34.17;;;16.33;;
47960;SDS011;33721;48.852;9.936;2023-04-19T02:39:32;31.23;;;15.50;;
47960;SDS011;33721;48.852;9.936;2023-04-19T02:41:58;31.65;;;15.07;;
47960;SDS011;33721;48.852;9.936;2023-04-19T02:44:25;32.00;;;15.38;;
47960;SDS011;33721;48.852;9.936;2023-04-19T02:46:51;31.63;;;14.75;;
47960;SDS011;33721;48.852;9.936;2023-04-19T02:49:17;37.85;;;15.85;;
47960;SDS011;33721;48.852;9.936;2023-04-19T02:51:44;33.05;;;14.65;;
47960;SDS011;33721;48.852;9.936;2023-04-19T02:54:10;31.52;;;15.15;;
47960;SDS011;33721;48.852;9.936;2023-04-19T02:56:36;33.28;;;15.25;;
47960;SDS011;33721;48.852;9.936;2023-04-19T02:59:02;30.33;;;15.15;;
47960;SDS011;33721;48.852;9.936;2023-04-19T03:01:28;33.75;;;15.60;;
47960;SDS011;33721;48.852;9.936;2023-04-19T03:03:54;32.65;;;16.48;;
47960;SDS011;33721;48.852;9.936;2023-04-19T03:06:20;32.15;;;14.88;;
47960;SDS011;33721;48.852;9.936;2023-04-19T03:08:46;34.35;;;15.43;;
47960;SDS011;33721;48.852;9.936;2023-04-19T03:11:11;37.25;;;15.85;;
47960;SDS011;33721;48.852;9.936;2023-04-19T03:13:38;35.72;;;15.25;;
47960;SDS011;33721;48.852;9.936;2023-04-19T03:16:05;32.13;;;14.50;;
47960;SDS011;33721;48.852;9.936;2023-04-19T03:18:31;32.75;;;16.38;;
47960;SDS011;33721;48.852;9.936;2023-04-19T03:20:56;31.75;;;15.23;;
47960;SDS011;33721;48.852;9.936;2023-04-19T03:23:22;34.13;;;14.93;;
47960;SDS011;33721;48.852;9.936;2023-04-19T03:25:47;33.35;;;15.18;;
47960;SDS011;33721;48.852;9.936;2023-04-19T03:28:13;34.08;;;15.45;;
47960;SDS011;33721;48.852;9.936;2023-04-19T03:30:39;34.63;;;15.77;;
47960;SDS011;33721;48.852;9.936;2023-04-19T03:33:05;32.97;;;14.70;;
47960;SDS011;33721;48.852;9.936;2023-04-19T03:35:30;32.05;;;14.75;;
47960;SDS011;33721;48.852;9.936;2023-04-19T03:37:56;33.47;;;15.88;;
47960;SDS011;33721;48.852;9.936;2023-04-19T03:40:22;32.92;;;15.13;;
47960;SDS011;33721;48.852;9.936;2023-04-19T03:42:48;31.48;;;14.38;;
47960;SDS011;33721;48.852;9.936;2023-04-19T03:45:13;30.75;;;14.13;;
47960;SDS011;33721;48.852;9.936;2023-04-19T03:47:39;29.17;;;13.95;;
47960;SDS011;33721;48.852;9.936;2023-04-19T03:50:05;31.60;;;14.85;;
47960;SDS011;33721;48.852;9.936;2023-04-19T03:52:31;32.58;;;15.15;;
47960;SDS011;33721;48.852;9.936;2023-04-19T03:54:57;29.55;;;14.20;;
47960;SDS011;33721;48.852;9.936;2023-04-19T03:57:23;35.22;;;15.82;;
47960;SDS011;33721;48.852;9.936;2023-04-19T03:59:48;31.77;;;15.00;;
47960;SDS011;33721;48.852;9.936;2023-04-19T04:02:14;34.08;;;15.25;;
47960;SDS011;33721;48.852;9.936;2023-04-19T04:04:39;32.38;;;14.23;;
47960;SDS011;33721;48.852;9.936;2023-04-19T04:07:05;34.40;;;15.52;;
47960;SDS011;33721;48.852;9.936;2023-04-19T04:09:31;33.42;;;14.80;;
47960;SDS011;33721;48.852;9.936;2023-04-19T04:11:56;30.10;;;14.43;;
47960;SDS011;33721;48.852;9.936;2023-04-19T04:14:22;32.08;;;15.30;;
47960;SDS011;33721;48.852;9.936;2023-04-19T04:16:48;36.22;;;15.77;;
47960;SDS011;33721;48.852;9.936;2023-04-19T04:19:13;31.30;;;14.48;;
47960;SDS011;33721;48.852;9.936;2023-04-19T04:21:39;29.83;;;13.98;;
47960;SDS011;33721;48.852;9.936;2023-04-19T04:24:05;31.02;;;14.50;;
47960;SDS011;33721;48.852;9.936;2023-04-19T04:26:31;31.73;;;14.45;;
47960;SDS011;33721;48.852;9.936;2023-04-19T04:28:58;30.00;;;14.55;;
47960;SDS011;33721;48.852;9.936;2023-04-19T04:31:26;30.85;;;14.55;;
47960;SDS011;33721;48.852;9.936;2023-04-19T04:33:52;33.60;;;14.50;;
47960;SDS011;33721;48.852;9.936;2023-04-19T04:36:19;32.13;;;14.68;;
47960;SDS011;33721;48.852;9.936;2023-04-19T04:38:45;31.70;;;14.30;;
47960;SDS011;33721;48.852;9.936;2023-04-19T04:41:10;30.35;;;13.68;;
47960;SDS011;33721;48.852;9.936;2023-04-19T04:43:36;31.35;;;15.32;;
47960;SDS011;33721;48.852;9.936;2023-04-19T04:46:03;33.90;;;14.65;;
47960;SDS011;33721;48.852;9.936;2023-04-19T04:48:29;32.88;;;13.95;;
47960;SDS011;33721;48.852;9.936;2023-04-19T04:50:55;34.20;;;15.07;;
47960;SDS011;33721;48.852;9.936;2023-04-19T04:53:21;35.97;;;15.07;;
47960;SDS011;33721;48.852;9.936;2023-04-19T04:55:49;50.60;;;20.65;;
47960;SDS011;33721;48.852;9.936;2023-04-19T04:58:15;34.08;;;16.23;;
47960;SDS011;33721;48.852;9.936;2023-04-19T05:00:40;35.13;;;16.60;;
47960;SDS011;33721;48.852;9.936;2023-04-19T05:03:06;41.55;;;19.35;;
47960;SDS011;33721;48.852;9.936;2023-04-19T05:05:32;32.83;;;15.57;;
47960;SDS011;33721;48.852;9.936;2023-04-19T05:07:57;30.10;;;14.20;;
47960;SDS011;33721;48.852;9.936;2023-04-19T05:10:23;37.42;;;15.70;;
47960;SDS011;33721;48.852;9.936;2023-04-19T05:12:49;47.03;;;17.60;;
47960;SDS011;33721;48.852;9.936;2023-04-19T05:15:15;70.95;;;26.48;;
47960;SDS011;33721;48.852;9.936;2023-04-19T05:17:40;69.88;;;23.48;;
47960;SDS011;33721;48.852;9.936;2023-04-19T05:20:07;65.55;;;23.73;;
47960;SDS011;33721;48.852;9.936;2023-04-19T05:22:33;80.05;;;27.52;;
47960;SDS011;33721;48.852;9.936;2023-04-19T05:24:58;74.75;;;25.95;;
47960;SDS011;33721;48.852;9.936;2023-04-19T05:27:24;75.45;;;25.50;;
47960;SDS011;33721;48.852;9.936;2023-04-19T05:29:49;59.85;;;22.45;;
47960;SDS011;33721;48.852;9.936;2023-04-19T05:32:16;46.15;;;19.17;;
47960;SDS011;33721;48.852;9.936;2023-04-19T05:34:41;33.95;;;14.85;;
47960;SDS011;33721;48.852;9.936;2023-04-19T05:37:07;34.17;;;15.38;;
47960;SDS011;33721;48.852;9.936;2023-04-19T05:39:32;41.53;;;17.20;;
47960;SDS011;33721;48.852;9.936;2023-04-19T05:41:58;35.35;;;16.33;;
47960;SDS011;33721;48.852;9.936;2023-04-19T05:44:24;37.45;;;16.45;;
47960;SDS011;33721;48.852;9.936;2023-04-19T05:46:50;34.50;;;15.57;;
47960;SDS011;33721;48.852;9.936;2023-04-19T05:49:15;38.13;;;16.35;;
47960;SDS011;33721;48.852;9.936;2023-04-19T05:51:41;60.08;;;22.15;;
47960;SDS011;33721;48.852;9.936;2023-04-19T05:54:06;61.78;;;22.17;;
47960;SDS011;33721;48.852;9.936;2023-04-19T05:56:36;35.28;;;15.45;;
47960;SDS011;33721;48.852;9.936;2023-04-19T05:59:02;40.92;;;16.40;;
47960;SDS011;33721;48.852;9.936;2023-04-19T06:01:28;49.65;;;19.33;;
47960;SDS011;33721;48.852;9.936;2023-04-19T06:03:53;44.75;;;17.65;;
47960;SDS011;33721;48.852;9.936;2023-04-19T06:06:20;35.35;;;15.07;;
47960;SDS011;33721;48.852;9.936;2023-04-19T06:08:47;36.83;;;16.30;;
47960;SDS011;33721;48.852;9.936;2023-04-19T06:11:13;35.47;;;15.82;;
47960;SDS011;33721;48.852;9.936;2023-04-19T06:13:38;35.97;;;15.65;;
47960;SDS011;33721;48.852;9.936;2023-04-19T06:16:04;48.28;;;19.08;;
47960;SDS011;33721;48.852;9.936;2023-04-19T06:18:30;52.75;;;20.20;;
47960;SDS011;33721;48.852;9.936;2023-04-19T06:20:56;41.35;;;15.80;;
47960;SDS011;33721;48.852;9.936;2023-04-19T06:23:21;34.72;;;15.05;;
47960;SDS011;33721;48.852;9.936;2023-04-19T06:25:47;39.53;;;16.77;;
47960;SDS011;33721;48.852;9.936;2023-04-19T06:28:13;33.20;;;13.98;;
47960;SDS011;33721;48.852;9.936;2023-04-19T06:30:39;44.88;;;21.75;;
47960;SDS011;33721;48.852;9.936;2023-04-19T06:33:04;45.10;;;18.67;;
47960;SDS011;33721;48.852;9.936;2023-04-19T06:35:30;29.45;;;13.93;;
47960;SDS011;33721;48.852;9.936;2023-04-19T06:37:56;32.55;;;14.27;;
47960;SDS011;33721;48.852;9.936;2023-04-19T06:40:23;31.80;;;15.02;;
47960;SDS011;33721;48.852;9.936;2023-04-19T06:42:51;39.28;;;19.15;;
47960;SDS011;33721;48.852;9.936;2023-04-19T06:45:17;33.22;;;15.82;;
47960;SDS011;33721;48.852;9.936;2023-04-19T06:47:43;32.08;;;14.70;;
47960;SDS011;33721;48.852;9.936;2023-04-19T06:50:08;31.10;;;13.45;;
47960;SDS011;33721;48.852;9.936;2023-04-19T06:52:35;33.78;;;14.77;;
47960;SDS011;33721;48.852;9.936;2023-04-19T06:55:00;31.92;;;14.77;;
47960;SDS011;33721;48.852;9.936;2023-04-19T06:57:26;33.63;;;15.52;;
47960;SDS011;33721;48.852;9.936;2023-04-19T06:59:53;29.45;;;13.55;;
47960;SDS011;33721;48.852;9.936;2023-04-19T07:02:19;28.83;;;13.65;;
47960;SDS011;33721;48.852;9.936;2023-04-19T07:04:45;34.08;;;15.63;;
47960;SDS011;33721;48.852;9.936;2023-04-19T07:07:12;31.30;;;13.95;;
47960;SDS011;33721;48.852;9.936;2023-04-19T07:09:37;29.67;;;14.77;;
47960;SDS011;33721;48.852;9.936;2023-04-19T07:12:03;30.77;;;14.70;;
47960;SDS011;33721;48.852;9.936;2023-04-19T07:14:29;33.38;;;14.48;;
47960;SDS011;33721;48.852;9.936;2023-04-19T07:16:55;37.85;;;16.05;;
47960;SDS011;33721;48.852;9.936;2023-04-19T07:19:21;30.40;;;14.52;;
47960;SDS011;33721;48.852;9.936;2023-04-19T07:21:47;49.65;;;20.63;;
47960;SDS011;33721;48.852;9.936;2023-04-19T07:24:12;38.30;;;18.10;;
47960;SDS011;33721;48.852;9.936;2023-04-19T07:26:38;44.40;;;19.55;;
47960;SDS011;33721;48.852;9.936;2023-04-19T07:29:04;34.75;;;15.57;;
47960;SDS011;33721;48.852;9.936;2023-04-19T07:31:29;33.20;;;15.23;;
47960;SDS011;33721;48.852;9.936;2023-04-19T07:33:55;32.10;;;14.50;;
47960;SDS011;33721;48.852;9.936;2023-04-19T07:36:21;28.85;;;13.65;;
47960;SDS011;33721;48.852;9.936;2023-04-19T07:38:47;28.35;;;13.95;;
47960;SDS011;33721;48.852;9.936;2023-04-19T07:41:12;27.48;;;13.15;;
47960;SDS011;33721;48.852;9.936;2023-04-19T07:43:38;30.95;;;12.65;;
47960;SDS011;33721;48.852;9.936;2023-04-19T07:46:10;30.02;;;13.13;;
47960;SDS011;33721;48.852;9.936;2023-04-19T07:48:36;31.15;;;12.70;;
47960;SDS011;33721;48.852;9.936;2023-04-19T07:51:09;28.05;;;12.85;;
47960;SDS011;33721;48.852;9.936;2023-04-19T07:53:35;25.83;;;12.40;;
47960;SDS011;33721;48.852;9.936;2023-04-19T07:56:02;25.80;;;11.90;;
47960;SDS011;33721;48.852;9.936;2023-04-19T07:58:27;25.90;;;12.68;;
47960;SDS011;33721;48.852;9.936;2023-04-19T08:00:53;25.65;;;12.15;;
47960;SDS011;33721;48.852;9.936;2023-04-19T08:03:19;26.83;;;11.82;;
47960;SDS011;33721;48.852;9.936;2023-04-19T08:05:44;25.52;;;11.40;;
47960;SDS011;33721;48.852;9.936;2023-04-19T08:08:10;25.92;;;12.40;;
47960;SDS011;33721;48.852;9.936;2023-04-19T08:10:36;23.15;;;11.98;;
47960;SDS011;33721;48.852;9.936;2023-04-19T08:13:02;23.58;;;11.57;;
47960;SDS011;33721;48.852;9.936;2023-04-19T08:15:27;25.67;;;11.90;;
47960;SDS011;33721;48.852;9.936;2023-04-19T08:17:53;26.45;;;11.52;;
47960;SDS011;33721;48.852;9.936;2023-04-19T08:20:19;27.33;;;12.23;;
47960;SDS011;33721;48.852;9.936;2023-04-19T08:22:45;24.13;;;12.00;;
47960;SDS011;33721;48.852;9.936;2023-04-19T08:25:11;23.73;;;11.32;;
47960;SDS011;33721;48.852;9.936;2023-04-19T08:27:37;24.75;;;11.73;;
47960;SDS011;33721;48.852;9.936;2023-04-19T08:30:02;24.52;;;12.25;;
47960;SDS011;33721;48.852;9.936;2023-04-19T08:32:28;26.25;;;11.55;;
47960;SDS011;33721;48.852;9.936;2023-04-19T08:34:54;25.38;;;12.23;;
47960;SDS011;33721;48.852;9.936;2023-04-19T08:37:21;29.02;;;13.13;;
47960;SDS011;33721;48.852;9.936;2023-04-19T08:39:46;25.30;;;12.13;;
47960;SDS011;33721;48.852;9.936;2023-04-19T08:42:12;25.65;;;12.07;;
47960;SDS011;33721;48.852;9.936;2023-04-19T08:44:38;24.02;;;11.75;;
47960;SDS011;33721;48.852;9.936;2023-04-19T08:47:04;24.05;;;11.65;;
47960;SDS011;33721;48.852;9.936;2023-04-19T08:49:33;27.25;;;14.93;;
47960;SDS011;33721;48.852;9.936;2023-04-19T08:52:03;25.00;;;11.27;;
47960;SDS011;33721;48.852;9.936;2023-04-19T08:54:30;31.23;;;14.85;;
47960;SDS011;33721;48.852;9.936;2023-04-19T08:56:59;29.52;;;13.77;;
47960;SDS011;33721;48.852;9.936;2023-04-19T08:59:26;27.20;;;13.50;;
47960;SDS011;33721;48.852;9.936;2023-04-19T09:01:53;28.45;;;13.73;;
47960;SDS011;33721;48.852;9.936;2023-04-19T09:04:20;24.83;;;12.85;;
47960;SDS011;33721;48.852;9.936;2023-04-19T09:06:46;27.30;;;12.70;;
47960;SDS011;33721;48.852;9.936;2023-04-19T09:09:13;26.65;;;13.93;;
47960;SDS011;33721;48.852;9.936;2023-04-19T09:11:45;28.45;;;12.57;;
47960;SDS011;33721;48.852;9.936;2023-04-19T09:14:13;23.00;;;12.30;;
47960;SDS011;33721;48.852;9.936;2023-04-19T09:16:40;25.55;;;11.93;;
47960;SDS011;33721;48.852;9.936;2023-04-19T09:19:06;24.60;;;12.50;;
47960;SDS011;33721;48.852;9.936;2023-04-19T09:21:36;27.17;;;12.73;;
47960;SDS011;33721;48.852;9.936;2023-04-19T09:24:03;27.27;;;12.75;;
47960;SDS011;33721;48.852;9.936;2023-04-19T09:26:29;32.88;;;12.55;;
47960;SDS011;33721;48.852;9.936;2023-04-19T09:28:56;24.73;;;12.52;;
47960;SDS011;33721;48.852;9.936;2023-04-19T09:31:32;28.90;;;12.68;;
47960;SDS011;33721;48.852;9.936;2023-04-19T09:34:15;23.45;;;12.13;;
47960;SDS011;33721;48.852;9.936;2023-04-19T09:36:45;24.73;;;12.55;;
47960;SDS011;33721;48.852;9.936;2023-04-19T09:39:12;25.67;;;13.00;;
47960;SDS011;33721;48.852;9.936;2023-04-19T09:41:51;27.63;;;12.70;;
47960;SDS011;33721;48.852;9.936;2023-04-19T09:44:20;26.35;;;13.68;;
47960;SDS011;33721;48.852;9.936;2023-04-19T09:46:46;27.92;;;13.50;;
47960;SDS011;33721;48.852;9.936;2023-04-19T09:51:50;22.58;;;11.48;;
47960;SDS011;33721;48.852;9.936;2023-04-19T09:54:21;29.38;;;14.15;;
47960;SDS011;33721;48.852;9.936;2023-04-19T09:56:48;25.75;;;12.75;;
47960;SDS011;33721;48.852;9.936;2023-04-19T09:59:14;28.73;;;13.00;;
47960;SDS011;33721;48.852;9.936;2023-04-19T10:01:45;27.70;;;13.23;;
47960;SDS011;33721;48.852;9.936;2023-04-19T10:04:11;30.70;;;13.65;;
47960;SDS011;33721;48.852;9.936;2023-04-19T10:06:47;30.60;;;13.93;;
47960;SDS011;33721;48.852;9.936;2023-04-19T10:09:14;34.83;;;13.50;;
47960;SDS011;33721;48.852;9.936;2023-04-19T10:11:44;25.15;;;12.63;;
47960;SDS011;33721;48.852;9.936;2023-04-19T10:14:13;33.05;;;12.82;;
47960;SDS011;33721;48.852;9.936;2023-04-19T10:16:40;27.40;;;12.43;;
47960;SDS011;33721;48.852;9.936;2023-04-19T10:19:10;24.13;;;11.93;;
47960;SDS011;33721;48.852;9.936;2023-04-19T10:21:37;25.90;;;12.23;;
47960;SDS011;33721;48.852;9.936;2023-04-19T10:24:05;25.35;;;12.40;;
47960;SDS011;33721;48.852;9.936;2023-04-19T10:27:04;25.05;;;11.85;;
47960;SDS011;33721;48.852;9.936;2023-04-19T10:32:20;23.55;;;11.90;;
47960;SDS011;33721;48.852;9.936;2023-04-19T10:35:16;24.67;;;11.82;;
47960;SDS011;33721;48.852;9.936;2023-04-19T10:38:05;25.85;;;11.40;;
47960;SDS011;33721;48.852;9.936;2023-04-19T10:43:21;28.10;;;13.05;;
47960;SDS011;33721;48.852;9.936;2023-04-19T10:45:48;25.92;;;12.05;;
47960;SDS011;33721;48.852;9.936;2023-04-19T10:50:58;27.98;;;12.38;;
47960;SDS011;33721;48.852;9.936;2023-04-19T10:56:08;28.75;;;12.68;;
47960;SDS011;33721;48.852;9.936;2023-04-19T11:01:31;30.83;;;14.15;;
47960;SDS011;33721;48.852;9.936;2023-04-19T11:04:07;30.63;;;14.93;;
47960;SDS011;33721;48.852;9.936;2023-04-19T11:09:24;32.75;;;15.50;;
47960;SDS011;33721;48.852;9.936;2023-04-19T11:11:59;33.20;;;16.65;;
47960;SDS011;33721;48.852;9.936;2023-04-19T11:19:44;40.10;;;17.88;;
47960;SDS011;33721;48.852;9.936;2023-04-19T11:22:23;42.63;;;18.73;;
47960;SDS011;33721;48.852;9.936;2023-04-19T11:27:38;39.80;;;19.05;;
47960;SDS011;33721;48.852;9.936;2023-04-19T11:30:05;42.15;;;19.33;;
47960;SDS011;33721;48.852;9.936;2023-04-19T11:32:36;47.85;;;19.83;;
47960;SDS011;33721;48.852;9.936;2023-04-19T11:35:08;42.40;;;19.00;;
47960;SDS011;33721;48.852;9.936;2023-04-19T11:37:35;38.55;;;18.60;;
47960;SDS011;33721;48.852;9.936;2023-04-19T11:40:01;38.95;;;18.20;;
47960;SDS011;33721;48.852;9.936;2023-04-19T11:42:29;38.33;;;18.42;;
47960;SDS011;33721;48.852;9.936;2023-04-19T11:44:55;37.38;;;17.48;;
47960;SDS011;33721;48.852;9.936;2023-04-19T11:47:22;39.38;;;17.80;;
47960;SDS011;33721;48.852;9.936;2023-04-19T11:49:48;41.05;;;17.80;;
47960;SDS011;33721;48.852;9.936;2023-04-19T11:52:19;35.47;;;17.27;;
47960;SDS011;33721;48.852;9.936;2023-04-19T11:54:46;41.42;;;17.95;;
47960;SDS011;33721;48.852;9.936;2023-04-19T11:57:12;36.72;;;17.65;;
47960;SDS011;33721;48.852;9.936;2023-04-19T11:59:37;38.88;;;17.85;;
47960;SDS011;33721;48.852;9.936;2023-04-19T12:02:10;36.85;;;18.10;;
47960;SDS011;33721;48.852;9.936;2023-04-19T12:04:37;37.67;;;17.10;;
47960;SDS011;33721;48.852;9.936;2023-04-19T12:07:04;40.50;;;18.42;;
47960;SDS011;33721;48.852;9.936;2023-04-19T12:09:34;42.55;;;20.02;;
47960;SDS011;33721;48.852;9.936;2023-04-19T12:12:00;38.87;;;19.87;;
47960;SDS011;33721;48.852;9.936;2023-04-19T12:14:27;44.20;;;18.90;;
47960;SDS011;33721;48.852;9.936;2023-04-19T12:19:47;38.85;;;18.40;;
47960;SDS011;33721;48.852;9.936;2023-04-19T12:22:14;41.42;;;19.58;;
47960;SDS011;33721;48.852;9.936;2023-04-19T12:24:41;42.45;;;19.35;;
47960;SDS011;33721;48.852;9.936;2023-04-19T12:27:07;38.85;;;19.88;;
47960;SDS011;33721;48.852;9.936;2023-04-19T12:29:34;40.75;;;19.02;;
47960;SDS011;33721;48.852;9.936;2023-04-19T12:32:00;34.63;;;17.20;;
47960;SDS011;33721;48.852;9.936;2023-04-19T12:34:26;34.13;;;17.45;;
47960;SDS011;33721;48.852;9.936;2023-04-19T12:36:52;38.92;;;17.85;;
47960;SDS011;33721;48.852;9.936;2023-04-19T12:39:17;39.10;;;20.48;;
47960;SDS011;33721;48.852;9.936;2023-04-19T12:41:43;33.83;;;17.10;;
47960;SDS011;33721;48.852;9.936;2023-04-19T12:44:12;37.38;;;18.58;;
47960;SDS011;33721;48.852;9.936;2023-04-19T12:46:37;35.60;;;17.17;;
47960;SDS011;33721;48.852;9.936;2023-04-19T12:49:03;31.80;;;15.88;;
47960;SDS011;33721;48.852;9.936;2023-04-19T12:51:29;35.50;;;16.90;;
47960;SDS011;33721;48.852;9.936;2023-04-19T12:53:55;30.25;;;15.73;;
47960;SDS011;33721;48.852;9.936;2023-04-19T12:56:21;30.23;;;15.20;;
47960;SDS011;33721;48.852;9.936;2023-04-19T12:58:47;30.42;;;16.45;;
47960;SDS011;33721;48.852;9.936;2023-04-19T13:01:12;29.98;;;14.80;;
47960;SDS011;33721;48.852;9.936;2023-04-19T13:03:38;29.15;;;15.02;;
47960;SDS011;33721;48.852;9.936;2023-04-19T13:06:04;29.77;;;14.90;;
47960;SDS011;33721;48.852;9.936;2023-04-19T13:08:30;26.15;;;13.20;;
47960;SDS011;33721;48.852;9.936;2023-04-19T13:10:56;33.58;;;13.80;;
47960;SDS011;33721;48.852;9.936;2023-04-19T13:13:23;30.85;;;15.95;;
47960;SDS011;33721;48.852;9.936;2023-04-19T13:15:50;27.30;;;13.77;;
47960;SDS011;33721;48.852;9.936;2023-04-19T13:18:16;28.63;;;14.68;;
47960;SDS011;33721;48.852;9.936;2023-04-19T13:20:41;30.90;;;14.93;;
47960;SDS011;33721;48.852;9.936;2023-04-19T13:23:07;27.35;;;13.52;;
47960;SDS011;33721;48.852;9.936;2023-04-19T13:25:33;29.25;;;13.75;;
47960;SDS011;33721;48.852;9.936;2023-04-19T13:27:58;28.25;;;13.65;;
47960;SDS011;33721;48.852;9.936;2023-04-19T13:30:24;29.88;;;14.60;;
47960;SDS011;33721;48.852;9.936;2023-04-19T13:32:50;30.88;;;14.80;;
47960;SDS011;33721;48.852;9.936;2023-04-19T13:35:16;29.92;;;14.45;;
47960;SDS011;33721;48.852;9.936;2023-04-19T13:37:42;26.45;;;14.10;;
47960;SDS011;33721;48.852;9.936;2023-04-19T13:40:08;29.92;;;14.65;;
47960;SDS011;33721;48.852;9.936;2023-04-19T13:42:35;30.25;;;14.60;;
47960;SDS011;33721;48.852;9.936;2023-04-19T13:45:00;29.77;;;16.17;;
47960;SDS011;33721;48.852;9.936;2023-04-19T13:47:26;33.72;;;15.57;;
47960;SDS011;33721;48.852;9.936;2023-04-19T13:49:52;29.75;;;14.57;;
47960;SDS011;33721;48.852;9.936;2023-04-19T13:52:18;31.67;;;16.02;;
47960;SDS011;33721;48.852;9.936;2023-04-19T13:54:43;30.98;;;14.93;;
47960;SDS011;33721;48.852;9.936;2023-04-19T13:57:09;27.25;;;13.73;;
47960;SDS011;33721;48.852;9.936;2023-04-19T13:59:35;26.80;;;13.85;;
47960;SDS011;33721;48.852;9.936;2023-04-19T14:02:02;30.83;;;14.50;;
47960;SDS011;33721;48.852;9.936;2023-04-19T14:04:28;25.55;;;13.98;;
47960;SDS011;33721;48.852;9.936;2023-04-19T14:06:54;24.60;;;13.57;;
47960;SDS011;33721;48.852;9.936;2023-04-19T14:09:20;27.23;;;14.27;;
47960;SDS011;33721;48.852;9.936;2023-04-19T14:11:46;29.17;;;14.65;;
47960;SDS011;33721;48.852;9.936;2023-04-19T14:14:13;31.13;;;17.00;;
47960;SDS011;33721;48.852;9.936;2023-04-19T14:16:39;34.05;;;15.20;;
47960;SDS011;33721;48.852;9.936;2023-04-19T14:19:05;30.90;;;14.45;;
47960;SDS011;33721;48.852;9.936;2023-04-19T14:21:31;25.77;;;13.65;;
47960;SDS011;33721;48.852;9.936;2023-04-19T14:23:56;27.98;;;13.65;;
47960;SDS011;33721;48.852;9.936;2023-04-19T14:26:22;29.63;;;14.70;;
47960;SDS011;33721;48.852;9.936;2023-04-19T14:28:48;28.75;;;14.88;;
47960;SDS011;33721;48.852;9.936;2023-04-19T14:31:13;33.10;;;14.27;;
47960;SDS011;33721;48.852;9.936;2023-04-19T14:33:39;27.23;;;14.13;;
47960;SDS011;33721;48.852;9.936;2023-04-19T14:36:05;27.55;;;14.68;;
47960;SDS011;33721;48.852;9.936;2023-04-19T14:38:31;26.60;;;13.88;;
47960;SDS011;33721;48.852;9.936;2023-04-19T14:40:57;26.65;;;13.27;;
47960;SDS011;33721;48.852;9.936;2023-04-19T14:43:23;29.38;;;14.05;;
47960;SDS011;33721;48.852;9.936;2023-04-19T14:45:49;28.42;;;14.20;;
47960;SDS011;33721;48.852;9.936;2023-04-19T14:48:15;30.13;;;14.60;;